Weston, Michigan
Current Conditions -  °F | °C
As of 6:53 AM on Thursday 27 Nov 2014 (Local Time) from KADG Reporting Station
Overcast Overcast  
Wind Chill: 19°   Ceiling: 4400
Heat Index: 27°   Visibility: 10mi
Dew Point: 20°   Wind: 7mph
Humidity: 75%   Direction: 330°NNW
Pressure: 30.15"   Gusts: NA
Location:  41.77°N, 84.1°W
Report Text: KADG 271153Z AUTO 33006KT 10SM OVC044 M03/M07 A3015 RMK AO2 SLP221 T10281067 11011 21028 53009
Loading
Personal Weather Stations






























Interactive Weather Map New forecast layout! Learn more

10-Day Weather Forecast

Advertisements
Track Severe Weather on mobile